sensor_id;sensor_type;location;lat;lon;timestamp;P1;durP1;ratioP1;P2;durP2;ratioP2
6757;SDS011;3416;53.074;8.822;2023-04-06T00:00:10;13.98;;;10.23;;
6757;SDS011;3416;53.074;8.822;2023-04-06T00:02:37;14.43;;;11.00;;
6757;SDS011;3416;53.074;8.822;2023-04-06T00:05:05;12.30;;;11.10;;
6757;SDS011;3416;53.074;8.822;2023-04-06T00:07:33;13.10;;;10.40;;
6757;SDS011;3416;53.074;8.822;2023-04-06T00:10:01;17.30;;;11.68;;
6757;SDS011;3416;53.074;8.822;2023-04-06T00:12:28;12.35;;;10.27;;
6757;SDS011;3416;53.074;8.822;2023-04-06T00:14:55;14.00;;;11.75;;
6757;SDS011;3416;53.074;8.822;2023-04-06T00:17:22;15.00;;;10.98;;
6757;SDS011;3416;53.074;8.822;2023-04-06T00:19:49;14.57;;;10.90;;
6757;SDS011;3416;53.074;8.822;2023-04-06T00:22:16;17.85;;;11.85;;
6757;SDS011;3416;53.074;8.822;2023-04-06T00:24:43;14.18;;;9.93;;
6757;SDS011;3416;53.074;8.822;2023-04-06T00:27:11;14.55;;;10.05;;
6757;SDS011;3416;53.074;8.822;2023-04-06T00:29:39;16.83;;;12.88;;
6757;SDS011;3416;53.074;8.822;2023-04-06T00:32:06;13.55;;;10.98;;
6757;SDS011;3416;53.074;8.822;2023-04-06T00:34:33;14.23;;;12.18;;
6757;SDS011;3416;53.074;8.822;2023-04-06T00:37:00;15.98;;;11.60;;
6757;SDS011;3416;53.074;8.822;2023-04-06T00:39:27;16.10;;;12.30;;
6757;SDS011;3416;53.074;8.822;2023-04-06T00:41:53;15.43;;;11.32;;
6757;SDS011;3416;53.074;8.822;2023-04-06T00:44:23;15.80;;;11.73;;
6757;SDS011;3416;53.074;8.822;2023-04-06T00:46:50;16.02;;;13.00;;
6757;SDS011;3416;53.074;8.822;2023-04-06T00:49:17;16.33;;;13.20;;
6757;SDS011;3416;53.074;8.822;2023-04-06T00:51:44;15.02;;;11.90;;
6757;SDS011;3416;53.074;8.822;2023-04-06T00:54:11;13.48;;;12.15;;
6757;SDS011;3416;53.074;8.822;2023-04-06T00:56:38;17.13;;;12.20;;
6757;SDS011;3416;53.074;8.822;2023-04-06T00:59:05;18.25;;;13.77;;
6757;SDS011;3416;53.074;8.822;2023-04-06T01:01:34;15.20;;;12.48;;
6757;SDS011;3416;53.074;8.822;2023-04-06T01:04:01;16.00;;;11.57;;
6757;SDS011;3416;53.074;8.822;2023-04-06T01:06:28;23.10;;;13.43;;
6757;SDS011;3416;53.074;8.822;2023-04-06T01:08:55;19.98;;;12.40;;
6757;SDS011;3416;53.074;8.822;2023-04-06T01:11:22;15.13;;;11.18;;
6757;SDS011;3416;53.074;8.822;2023-04-06T01:13:49;15.30;;;12.30;;
6757;SDS011;3416;53.074;8.822;2023-04-06T01:16:16;14.48;;;12.60;;
6757;SDS011;3416;53.074;8.822;2023-04-06T01:18:44;15.50;;;11.07;;
6757;SDS011;3416;53.074;8.822;2023-04-06T01:21:11;14.35;;;11.85;;
6757;SDS011;3416;53.074;8.822;2023-04-06T01:23:43;13.13;;;10.80;;
6757;SDS011;3416;53.074;8.822;2023-04-06T01:26:10;14.60;;;12.13;;
6757;SDS011;3416;53.074;8.822;2023-04-06T01:28:37;19.65;;;10.75;;
6757;SDS011;3416;53.074;8.822;2023-04-06T01:31:05;14.77;;;11.77;;
6757;SDS011;3416;53.074;8.822;2023-04-06T01:33:32;17.70;;;12.38;;
6757;SDS011;3416;53.074;8.822;2023-04-06T01:35:59;17.65;;;13.18;;
6757;SDS011;3416;53.074;8.822;2023-04-06T01:38:26;24.73;;;13.95;;
6757;SDS011;3416;53.074;8.822;2023-04-06T01:40:54;22.58;;;13.48;;
6757;SDS011;3416;53.074;8.822;2023-04-06T01:43:21;24.85;;;16.00;;
6757;SDS011;3416;53.074;8.822;2023-04-06T01:45:48;27.33;;;14.45;;
6757;SDS011;3416;53.074;8.822;2023-04-06T01:48:16;23.02;;;14.60;;
6757;SDS011;3416;53.074;8.822;2023-04-06T01:50:42;26.15;;;14.15;;
6757;SDS011;3416;53.074;8.822;2023-04-06T01:53:09;22.15;;;12.90;;
6757;SDS011;3416;53.074;8.822;2023-04-06T01:55:36;17.30;;;12.00;;
6757;SDS011;3416;53.074;8.822;2023-04-06T01:58:05;13.13;;;11.55;;
6757;SDS011;3416;53.074;8.822;2023-04-06T02:00:32;11.52;;;10.25;;
6757;SDS011;3416;53.074;8.822;2023-04-06T02:02:59;13.55;;;10.65;;
6757;SDS011;3416;53.074;8.822;2023-04-06T02:05:26;33.22;;;12.18;;
6757;SDS011;3416;53.074;8.822;2023-04-06T02:07:53;11.63;;;10.27;;
6757;SDS011;3416;53.074;8.822;2023-04-06T02:10:20;13.20;;;9.38;;
6757;SDS011;3416;53.074;8.822;2023-04-06T02:12:47;15.90;;;11.75;;
6757;SDS011;3416;53.074;8.822;2023-04-06T02:15:16;16.60;;;11.80;;
6757;SDS011;3416;53.074;8.822;2023-04-06T02:17:43;12.65;;;11.05;;
6757;SDS011;3416;53.074;8.822;2023-04-06T02:20:09;15.43;;;10.30;;
6757;SDS011;3416;53.074;8.822;2023-04-06T02:22:37;13.38;;;10.05;;
6757;SDS011;3416;53.074;8.822;2023-04-06T02:25:04;13.80;;;11.20;;
6757;SDS011;3416;53.074;8.822;2023-04-06T02:27:31;16.67;;;11.10;;
6757;SDS011;3416;53.074;8.822;2023-04-06T02:29:58;12.07;;;9.60;;
6757;SDS011;3416;53.074;8.822;2023-04-06T02:32:26;11.35;;;9.45;;
6757;SDS011;3416;53.074;8.822;2023-04-06T02:34:53;16.27;;;9.70;;
6757;SDS011;3416;53.074;8.822;2023-04-06T02:37:20;14.90;;;10.88;;
6757;SDS011;3416;53.074;8.822;2023-04-06T02:39:48;11.05;;;9.85;;
6757;SDS011;3416;53.074;8.822;2023-04-06T02:42:15;14.35;;;10.80;;
6757;SDS011;3416;53.074;8.822;2023-04-06T02:44:42;13.10;;;10.80;;
6757;SDS011;3416;53.074;8.822;2023-04-06T02:47:09;11.77;;;9.60;;
6757;SDS011;3416;53.074;8.822;2023-04-06T02:49:37;11.90;;;10.45;;
6757;SDS011;3416;53.074;8.822;2023-04-06T02:52:04;14.38;;;11.57;;
6757;SDS011;3416;53.074;8.822;2023-04-06T02:54:31;13.05;;;10.70;;
6757;SDS011;3416;53.074;8.822;2023-04-06T02:56:57;11.60;;;10.40;;
6757;SDS011;3416;53.074;8.822;2023-04-06T02:59:24;15.80;;;10.30;;
6757;SDS011;3416;53.074;8.822;2023-04-06T03:01:51;13.65;;;10.45;;
6757;SDS011;3416;53.074;8.822;2023-04-06T03:04:18;13.23;;;10.23;;
6757;SDS011;3416;53.074;8.822;2023-04-06T03:06:48;11.82;;;9.68;;
6757;SDS011;3416;53.074;8.822;2023-04-06T03:09:15;15.10;;;10.18;;
6757;SDS011;3416;53.074;8.822;2023-04-06T03:11:42;14.32;;;10.80;;
6757;SDS011;3416;53.074;8.822;2023-04-06T03:14:09;18.40;;;11.57;;
6757;SDS011;3416;53.074;8.822;2023-04-06T03:16:36;13.30;;;11.88;;
6757;SDS011;3416;53.074;8.822;2023-04-06T03:19:03;12.13;;;10.40;;
6757;SDS011;3416;53.074;8.822;2023-04-06T03:21:30;12.40;;;11.10;;
6757;SDS011;3416;53.074;8.822;2023-04-06T03:23:58;13.68;;;10.32;;
6757;SDS011;3416;53.074;8.822;2023-04-06T03:26:25;14.05;;;9.63;;
6757;SDS011;3416;53.074;8.822;2023-04-06T03:28:52;12.77;;;10.93;;
6757;SDS011;3416;53.074;8.822;2023-04-06T03:31:19;11.50;;;10.40;;
6757;SDS011;3416;53.074;8.822;2023-04-06T03:33:46;13.38;;;10.57;;
6757;SDS011;3416;53.074;8.822;2023-04-06T03:36:13;16.00;;;10.77;;
6757;SDS011;3416;53.074;8.822;2023-04-06T03:38:39;15.15;;;11.13;;
6757;SDS011;3416;53.074;8.822;2023-04-06T03:41:08;11.82;;;10.63;;
6757;SDS011;3416;53.074;8.822;2023-04-06T03:43:35;10.90;;;9.40;;
6757;SDS011;3416;53.074;8.822;2023-04-06T03:46:02;12.15;;;10.80;;
6757;SDS011;3416;53.074;8.822;2023-04-06T03:48:28;11.65;;;8.75;;
6757;SDS011;3416;53.074;8.822;2023-04-06T03:50:56;12.57;;;10.27;;
6757;SDS011;3416;53.074;8.822;2023-04-06T03:53:23;11.13;;;9.55;;
6757;SDS011;3416;53.074;8.822;2023-04-06T03:55:50;12.68;;;10.05;;
6757;SDS011;3416;53.074;8.822;2023-04-06T03:58:18;11.77;;;10.25;;
6757;SDS011;3416;53.074;8.822;2023-04-06T04:00:45;13.55;;;11.18;;
6757;SDS011;3416;53.074;8.822;2023-04-06T04:03:12;13.68;;;9.80;;
6757;SDS011;3416;53.074;8.822;2023-04-06T04:05:38;12.88;;;10.48;;
6757;SDS011;3416;53.074;8.822;2023-04-06T04:08:05;11.60;;;10.43;;
6757;SDS011;3416;53.074;8.822;2023-04-06T04:10:32;16.55;;;10.50;;
6757;SDS011;3416;53.074;8.822;2023-04-06T04:12:59;11.55;;;10.30;;
6757;SDS011;3416;53.074;8.822;2023-04-06T04:15:27;14.30;;;11.95;;
6757;SDS011;3416;53.074;8.822;2023-04-06T04:17:54;14.73;;;10.88;;
6757;SDS011;3416;53.074;8.822;2023-04-06T04:20:21;12.10;;;10.90;;
6757;SDS011;3416;53.074;8.822;2023-04-06T04:22:48;19.25;;;11.73;;
6757;SDS011;3416;53.074;8.822;2023-04-06T04:25:15;13.95;;;10.68;;
6757;SDS011;3416;53.074;8.822;2023-04-06T04:27:42;11.38;;;10.20;;
6757;SDS011;3416;53.074;8.822;2023-04-06T04:30:09;12.90;;;10.98;;
6757;SDS011;3416;53.074;8.822;2023-04-06T04:32:37;14.23;;;11.68;;
6757;SDS011;3416;53.074;8.822;2023-04-06T04:35:04;13.00;;;11.10;;
6757;SDS011;3416;53.074;8.822;2023-04-06T04:37:32;13.05;;;11.23;;
6757;SDS011;3416;53.074;8.822;2023-04-06T04:39:59;16.92;;;13.90;;
6757;SDS011;3416;53.074;8.822;2023-04-06T04:42:26;14.98;;;11.65;;
6757;SDS011;3416;53.074;8.822;2023-04-06T04:44:53;14.75;;;12.55;;
6757;SDS011;3416;53.074;8.822;2023-04-06T04:47:20;14.73;;;13.23;;
6757;SDS011;3416;53.074;8.822;2023-04-06T04:49:48;14.60;;;12.38;;
6757;SDS011;3416;53.074;8.822;2023-04-06T04:52:15;16.95;;;13.23;;
6757;SDS011;3416;53.074;8.822;2023-04-06T04:54:42;18.35;;;12.38;;
6757;SDS011;3416;53.074;8.822;2023-04-06T04:57:09;15.13;;;12.38;;
6757;SDS011;3416;53.074;8.822;2023-04-06T04:59:36;16.05;;;12.88;;
6757;SDS011;3416;53.074;8.822;2023-04-06T05:02:03;22.02;;;13.20;;
6757;SDS011;3416;53.074;8.822;2023-04-06T05:04:30;19.48;;;12.70;;
6757;SDS011;3416;53.074;8.822;2023-04-06T05:07:05;17.27;;;13.52;;
6757;SDS011;3416;53.074;8.822;2023-04-06T05:09:33;15.43;;;12.68;;
6757;SDS011;3416;53.074;8.822;2023-04-06T05:12:00;18.38;;;12.60;;
6757;SDS011;3416;53.074;8.822;2023-04-06T05:14:27;15.77;;;13.07;;
6757;SDS011;3416;53.074;8.822;2023-04-06T05:16:54;18.58;;;11.05;;
6757;SDS011;3416;53.074;8.822;2023-04-06T05:19:21;15.70;;;12.02;;
6757;SDS011;3416;53.074;8.822;2023-04-06T05:21:48;18.23;;;11.68;;
6757;SDS011;3416;53.074;8.822;2023-04-06T05:24:16;20.67;;;11.98;;
6757;SDS011;3416;53.074;8.822;2023-04-06T05:26:43;17.15;;;13.68;;
6757;SDS011;3416;53.074;8.822;2023-04-06T05:29:10;17.15;;;12.82;;
6757;SDS011;3416;53.074;8.822;2023-04-06T05:31:37;20.17;;;12.88;;
6757;SDS011;3416;53.074;8.822;2023-04-06T05:34:04;20.33;;;13.57;;
6757;SDS011;3416;53.074;8.822;2023-04-06T05:36:31;27.58;;;13.98;;
6757;SDS011;3416;53.074;8.822;2023-04-06T05:38:58;20.60;;;14.50;;
6757;SDS011;3416;53.074;8.822;2023-04-06T05:41:26;27.30;;;14.90;;
6757;SDS011;3416;53.074;8.822;2023-04-06T05:43:53;21.50;;;13.48;;
6757;SDS011;3416;53.074;8.822;2023-04-06T05:46:20;15.30;;;12.05;;
6757;SDS011;3416;53.074;8.822;2023-04-06T05:48:47;14.05;;;11.75;;
6757;SDS011;3416;53.074;8.822;2023-04-06T05:51:14;23.02;;;13.15;;
6757;SDS011;3416;53.074;8.822;2023-04-06T05:53:41;11.93;;;10.70;;
6757;SDS011;3416;53.074;8.822;2023-04-06T05:56:08;13.40;;;11.13;;
6757;SDS011;3416;53.074;8.822;2023-04-06T05:58:36;17.33;;;13.50;;
6757;SDS011;3416;53.074;8.822;2023-04-06T06:01:03;23.20;;;11.00;;
6757;SDS011;3416;53.074;8.822;2023-04-06T06:03:30;14.52;;;10.10;;
6757;SDS011;3416;53.074;8.822;2023-04-06T06:06:00;17.27;;;11.38;;
6757;SDS011;3416;53.074;8.822;2023-04-06T06:08:27;15.35;;;10.57;;
6757;SDS011;3416;53.074;8.822;2023-04-06T06:10:54;15.32;;;10.63;;
6757;SDS011;3416;53.074;8.822;2023-04-06T06:13:22;22.88;;;10.40;;
6757;SDS011;3416;53.074;8.822;2023-04-06T06:15:50;13.40;;;9.48;;
6757;SDS011;3416;53.074;8.822;2023-04-06T06:18:18;11.98;;;9.10;;
6757;SDS011;3416;53.074;8.822;2023-04-06T06:20:45;9.63;;;8.68;;
6757;SDS011;3416;53.074;8.822;2023-04-06T06:23:13;9.70;;;8.68;;
6757;SDS011;3416;53.074;8.822;2023-04-06T06:25:40;15.63;;;10.40;;
6757;SDS011;3416;53.074;8.822;2023-04-06T06:28:07;10.30;;;9.30;;
6757;SDS011;3416;53.074;8.822;2023-04-06T06:30:34;10.70;;;9.60;;
6757;SDS011;3416;53.074;8.822;2023-04-06T06:33:03;9.48;;;8.48;;
6757;SDS011;3416;53.074;8.822;2023-04-06T06:35:30;9.70;;;8.25;;
6757;SDS011;3416;53.074;8.822;2023-04-06T06:37:57;10.27;;;8.27;;
6757;SDS011;3416;53.074;8.822;2023-04-06T06:40:24;10.25;;;9.00;;
6757;SDS011;3416;53.074;8.822;2023-04-06T06:42:51;9.13;;;8.20;;
6757;SDS011;3416;53.074;8.822;2023-04-06T06:45:19;11.23;;;9.10;;
6757;SDS011;3416;53.074;8.822;2023-04-06T06:47:46;9.13;;;8.30;;
6757;SDS011;3416;53.074;8.822;2023-04-06T06:50:14;8.50;;;7.70;;
6757;SDS011;3416;53.074;8.822;2023-04-06T06:52:41;10.50;;;8.25;;
6757;SDS011;3416;53.074;8.822;2023-04-06T06:55:09;14.97;;;8.77;;
6757;SDS011;3416;53.074;8.822;2023-04-06T06:57:37;12.93;;;8.73;;
6757;SDS011;3416;53.074;8.822;2023-04-06T07:00:04;13.20;;;9.50;;
6757;SDS011;3416;53.074;8.822;2023-04-06T07:02:33;8.93;;;7.40;;
6757;SDS011;3416;53.074;8.822;2023-04-06T07:05:01;10.87;;;8.33;;
6757;SDS011;3416;53.074;8.822;2023-04-06T07:07:31;11.20;;;8.90;;
6757;SDS011;3416;53.074;8.822;2023-04-06T07:09:58;9.43;;;8.43;;
6757;SDS011;3416;53.074;8.822;2023-04-06T07:12:25;9.00;;;8.10;;
6757;SDS011;3416;53.074;8.822;2023-04-06T07:14:52;9.30;;;8.50;;
6757;SDS011;3416;53.074;8.822;2023-04-06T07:17:21;9.30;;;8.50;;
6757;SDS011;3416;53.074;8.822;2023-04-06T07:19:48;13.20;;;8.70;;
6757;SDS011;3416;53.074;8.822;2023-04-06T07:22:15;14.63;;;9.50;;
6757;SDS011;3416;53.074;8.822;2023-04-06T07:24:43;8.97;;;8.07;;
6757;SDS011;3416;53.074;8.822;2023-04-06T07:27:10;11.40;;;8.90;;
6757;SDS011;3416;53.074;8.822;2023-04-06T07:29:37;13.33;;;8.63;;
6757;SDS011;3416;53.074;8.822;2023-04-06T07:32:04;10.70;;;9.70;;
6757;SDS011;3416;53.074;8.822;2023-04-06T07:34:31;9.07;;;8.07;;
6757;SDS011;3416;53.074;8.822;2023-04-06T07:36:59;9.60;;;8.70;;
6757;SDS011;3416;53.074;8.822;2023-04-06T07:39:28;10.30;;;8.20;;
6757;SDS011;3416;53.074;8.822;2023-04-06T07:41:57;10.80;;;9.40;;
6757;SDS011;3416;53.074;8.822;2023-04-06T07:44:24;11.77;;;9.50;;
6757;SDS011;3416;53.074;8.822;2023-04-06T07:46:51;11.70;;;8.70;;
6757;SDS011;3416;53.074;8.822;2023-04-06T07:49:18;12.20;;;8.63;;
6757;SDS011;3416;53.074;8.822;2023-04-06T07:51:46;11.30;;;9.33;;
6757;SDS011;3416;53.074;8.822;2023-04-06T07:54:13;12.10;;;8.40;;
6757;SDS011;3416;53.074;8.822;2023-04-06T07:56:40;15.30;;;9.30;;
6757;SDS011;3416;53.074;8.822;2023-04-06T07:59:09;9.70;;;7.70;;
6757;SDS011;3416;53.074;8.822;2023-04-06T08:01:47;8.77;;;7.93;;
6757;SDS011;3416;53.074;8.822;2023-04-06T08:04:14;9.47;;;8.37;;
6757;SDS011;3416;53.074;8.822;2023-04-06T08:06:41;10.13;;;8.50;;
6757;SDS011;3416;53.074;8.822;2023-04-06T08:09:08;10.33;;;9.33;;
6757;SDS011;3416;53.074;8.822;2023-04-06T08:11:36;9.40;;;8.53;;
6757;SDS011;3416;53.074;8.822;2023-04-06T08:14:03;9.83;;;8.80;;
6757;SDS011;3416;53.074;8.822;2023-04-06T08:16:31;9.50;;;8.60;;
6757;SDS011;3416;53.074;8.822;2023-04-06T08:18:58;9.97;;;8.50;;
6757;SDS011;3416;53.074;8.822;2023-04-06T08:21:25;10.87;;;8.10;;
6757;SDS011;3416;53.074;8.822;2023-04-06T08:23:52;12.30;;;9.23;;
6757;SDS011;3416;53.074;8.822;2023-04-06T08:26:19;9.27;;;8.50;;
6757;SDS011;3416;53.074;8.822;2023-04-06T08:28:46;8.77;;;7.83;;
6757;SDS011;3416;53.074;8.822;2023-04-06T08:31:13;9.70;;;8.63;;
6757;SDS011;3416;53.074;8.822;2023-04-06T08:33:43;9.60;;;8.60;;
6757;SDS011;3416;53.074;8.822;2023-04-06T08:36:13;10.47;;;8.23;;
6757;SDS011;3416;53.074;8.822;2023-04-06T08:38:53;9.53;;;8.47;;
6757;SDS011;3416;53.074;8.822;2023-04-06T08:41:39;10.33;;;9.00;;
6757;SDS011;3416;53.074;8.822;2023-04-06T08:44:36;10.10;;;8.37;;
6757;SDS011;3416;53.074;8.822;2023-04-06T08:47:12;7.73;;;7.00;;
6757;SDS011;3416;53.074;8.822;2023-04-06T08:49:42;10.37;;;8.30;;
6757;SDS011;3416;53.074;8.822;2023-04-06T08:52:13;8.10;;;7.30;;
6757;SDS011;3416;53.074;8.822;2023-04-06T08:55:05;9.73;;;8.73;;
6757;SDS011;3416;53.074;8.822;2023-04-06T08:57:38;9.53;;;8.50;;
6757;SDS011;3416;53.074;8.822;2023-04-06T09:00:13;9.20;;;8.20;;
6757;SDS011;3416;53.074;8.822;2023-04-06T09:02:52;12.73;;;8.03;;
6757;SDS011;3416;53.074;8.822;2023-04-06T09:05:26;9.13;;;8.23;;
6757;SDS011;3416;53.074;8.822;2023-04-06T09:07:59;11.03;;;8.50;;
6757;SDS011;3416;53.074;8.822;2023-04-06T09:10:53;11.80;;;9.90;;
6757;SDS011;3416;53.074;8.822;2023-04-06T09:13:31;10.63;;;9.57;;
6757;SDS011;3416;53.074;8.822;2023-04-06T09:16:25;9.87;;;8.43;;
6757;SDS011;3416;53.074;8.822;2023-04-06T09:19:07;11.87;;;9.07;;
6757;SDS011;3416;53.074;8.822;2023-04-06T09:21:43;9.77;;;8.77;;
6757;SDS011;3416;53.074;8.822;2023-04-06T09:24:18;9.93;;;8.27;;
6757;SDS011;3416;53.074;8.822;2023-04-06T09:26:54;12.47;;;9.63;;
6757;SDS011;3416;53.074;8.822;2023-04-06T09:29:42;10.50;;;9.37;;
6757;SDS011;3416;53.074;8.822;2023-04-06T09:35:21;12.50;;;9.87;;
6757;SDS011;3416;53.074;8.822;2023-04-06T09:38:10;10.67;;;9.67;;
6757;SDS011;3416;53.074;8.822;2023-04-06T09:43:46;9.13;;;8.27;;
6757;SDS011;3416;53.074;8.822;2023-04-06T09:46:38;12.13;;;9.90;;
6757;SDS011;3416;53.074;8.822;2023-04-06T09:49:10;10.40;;;9.40;;
6757;SDS011;3416;53.074;8.822;2023-04-06T09:51:40;11.60;;;10.40;;
6757;SDS011;3416;53.074;8.822;2023-04-06T09:54:21;11.73;;;10.50;;
6757;SDS011;3416;53.074;8.822;2023-04-06T09:57:04;10.97;;;9.97;;
6757;SDS011;3416;53.074;8.822;2023-04-06T09:59:51;10.07;;;8.40;;
6757;SDS011;3416;53.074;8.822;2023-04-06T10:02:40;12.10;;;9.80;;
6757;SDS011;3416;53.074;8.822;2023-04-06T10:05:22;11.43;;;9.40;;
6757;SDS011;3416;53.074;8.822;2023-04-06T10:08:05;12.80;;;11.50;;
6757;SDS011;3416;53.074;8.822;2023-04-06T10:10:43;11.37;;;10.20;;
6757;SDS011;3416;53.074;8.822;2023-04-06T10:13:23;12.03;;;10.83;;
6757;SDS011;3416;53.074;8.822;2023-04-06T10:15:57;14.33;;;11.00;;
6757;SDS011;3416;53.074;8.822;2023-04-06T10:18:38;12.02;;;10.73;;
6757;SDS011;3416;53.074;8.822;2023-04-06T10:21:24;13.35;;;11.40;;
6757;SDS011;3416;53.074;8.822;2023-04-06T10:24:01;13.97;;;10.90;;
6757;SDS011;3416;53.074;8.822;2023-04-06T10:26:45;12.87;;;10.93;;
6757;SDS011;3416;53.074;8.822;2023-04-06T10:29:43;12.80;;;11.02;;
6757;SDS011;3416;53.074;8.822;2023-04-06T10:32:22;14.88;;;11.40;;
6757;SDS011;3416;53.074;8.822;2023-04-06T10:35:08;15.60;;;11.30;;
6757;SDS011;3416;53.074;8.822;2023-04-06T10:37:52;13.33;;;12.00;;
6757;SDS011;3416;53.074;8.822;2023-04-06T10:40:41;13.65;;;11.38;;
6757;SDS011;3416;53.074;8.822;2023-04-06T10:43:19;14.77;;;12.50;;
6757;SDS011;3416;53.074;8.822;2023-04-06T10:46:00;14.23;;;11.63;;
6757;SDS011;3416;53.074;8.822;2023-04-06T10:48:38;13.52;;;12.23;;
6757;SDS011;3416;53.074;8.822;2023-04-06T10:51:14;13.75;;;12.35;;
6757;SDS011;3416;53.074;8.822;2023-04-06T10:54:03;15.70;;;12.48;;
6757;SDS011;3416;53.074;8.822;2023-04-06T10:56:41;13.10;;;11.88;;
6757;SDS011;3416;53.074;8.822;2023-04-06T11:01:57;12.73;;;11.50;;
6757;SDS011;3416;53.074;8.822;2023-04-06T11:04:44;14.02;;;11.40;;
6757;SDS011;3416;53.074;8.822;2023-04-06T11:07:29;12.98;;;11.38;;
6757;SDS011;3416;53.074;8.822;2023-04-06T11:10:02;15.00;;;11.68;;
6757;SDS011;3416;53.074;8.822;2023-04-06T11:12:54;15.10;;;11.70;;
6757;SDS011;3416;53.074;8.822;2023-04-06T11:15:46;11.52;;;10.32;;
6757;SDS011;3416;53.074;8.822;2023-04-06T11:18:18;14.63;;;11.15;;
6757;SDS011;3416;53.074;8.822;2023-04-06T11:20:49;12.45;;;10.60;;
6757;SDS011;3416;53.074;8.822;2023-04-06T11:23:25;14.77;;;12.90;;
6757;SDS011;3416;53.074;8.822;2023-04-06T11:26:01;12.52;;;10.98;;
6757;SDS011;3416;53.074;8.822;2023-04-06T11:28:44;13.07;;;11.68;;
6757;SDS011;3416;53.074;8.822;2023-04-06T11:31:15;14.93;;;10.65;;
6757;SDS011;3416;53.074;8.822;2023-04-06T11:33:58;14.80;;;12.13;;
6757;SDS011;3416;53.074;8.822;2023-04-06T11:36:29;13.07;;;11.70;;
6757;SDS011;3416;53.074;8.822;2023-04-06T11:39:02;12.88;;;11.40;;
6757;SDS011;3416;53.074;8.822;2023-04-06T11:41:38;13.32;;;11.07;;
6757;SDS011;3416;53.074;8.822;2023-04-06T11:44:14;14.77;;;11.82;;
6757;SDS011;3416;53.074;8.822;2023-04-06T11:47:06;15.05;;;12.35;;
6757;SDS011;3416;53.074;8.822;2023-04-06T11:49:54;13.27;;;11.77;;
6757;SDS011;3416;53.074;8.822;2023-04-06T11:52:33;14.40;;;10.43;;
6757;SDS011;3416;53.074;8.822;2023-04-06T11:55:12;11.60;;;10.40;;
6757;SDS011;3416;53.074;8.822;2023-04-06T11:57:47;12.75;;;10.48;;
6757;SDS011;3416;53.074;8.822;2023-04-06T12:00:19;14.40;;;11.70;;
6757;SDS011;3416;53.074;8.822;2023-04-06T12:02:54;14.57;;;11.13;;
6757;SDS011;3416;53.074;8.822;2023-04-06T12:05:24;12.75;;;10.65;;
6757;SDS011;3416;53.074;8.822;2023-04-06T12:08:00;13.13;;;11.80;;
6757;SDS011;3416;53.074;8.822;2023-04-06T12:10:36;14.73;;;11.30;;
6757;SDS011;3416;53.074;8.822;2023-04-06T12:13:09;14.98;;;11.43;;
6757;SDS011;3416;53.074;8.822;2023-04-06T12:15:37;16.88;;;11.10;;
6757;SDS011;3416;53.074;8.822;2023-04-06T12:18:07;17.33;;;11.30;;
6757;SDS011;3416;53.074;8.822;2023-04-06T12:20:40;18.88;;;12.48;;
6757;SDS011;3416;53.074;8.822;2023-04-06T12:23:12;12.05;;;10.60;;
6757;SDS011;3416;53.074;8.822;2023-04-06T12:25:43;17.80;;;11.55;;
6757;SDS011;3416;53.074;8.822;2023-04-06T12:28:12;13.27;;;11.10;;
6757;SDS011;3416;53.074;8.822;2023-04-06T12:30:43;14.02;;;11.48;;
6757;SDS011;3416;53.074;8.822;2023-04-06T12:33:30;13.57;;;11.20;;
6757;SDS011;3416;53.074;8.822;2023-04-06T12:36:00;15.60;;;12.38;;
6757;SDS011;3416;53.074;8.822;2023-04-06T12:38:31;15.60;;;12.55;;
6757;SDS011;3416;53.074;8.822;2023-04-06T12:41:02;16.55;;;11.02;;
6757;SDS011;3416;53.074;8.822;2023-04-06T12:43:33;16.15;;;11.25;;
6757;SDS011;3416;53.074;8.822;2023-04-06T12:46:14;18.30;;;11.63;;
6757;SDS011;3416;53.074;8.822;2023-04-06T12:48:45;14.93;;;11.60;;
6757;SDS011;3416;53.074;8.822;2023-04-06T12:51:18;13.18;;;11.77;;
6757;SDS011;3416;53.074;8.822;2023-04-06T12:56:37;15.20;;;12.20;;
6757;SDS011;3416;53.074;8.822;2023-04-06T12:59:07;12.70;;;11.32;;
6757;SDS011;3416;53.074;8.822;2023-04-06T13:01:57;14.80;;;11.63;;
6757;SDS011;3416;53.074;8.822;2023-04-06T13:04:39;14.55;;;11.40;;
6757;SDS011;3416;53.074;8.822;2023-04-06T13:07:11;13.90;;;11.18;;
6757;SDS011;3416;53.074;8.822;2023-04-06T13:09:52;13.43;;;10.70;;
6757;SDS011;3416;53.074;8.822;2023-04-06T13:12:36;13.60;;;11.32;;
6757;SDS011;3416;53.074;8.822;2023-04-06T13:15:25;15.25;;;11.35;;
6757;SDS011;3416;53.074;8.822;2023-04-06T13:18:36;16.73;;;12.15;;
6757;SDS011;3416;53.074;8.822;2023-04-06T13:21:16;14.57;;;11.50;;
6757;SDS011;3416;53.074;8.822;2023-04-06T13:23:47;14.98;;;11.50;;
6757;SDS011;3416;53.074;8.822;2023-04-06T13:26:31;19.80;;;13.60;;
6757;SDS011;3416;53.074;8.822;2023-04-06T13:29:14;17.08;;;12.15;;
6757;SDS011;3416;53.074;8.822;2023-04-06T13:31:50;13.52;;;11.25;;
6757;SDS011;3416;53.074;8.822;2023-04-06T13:34:47;13.98;;;12.32;;
6757;SDS011;3416;53.074;8.822;2023-04-06T13:37:24;14.45;;;11.48;;
6757;SDS011;3416;53.074;8.822;2023-04-06T13:40:03;13.55;;;11.07;;
6757;SDS011;3416;53.074;8.822;2023-04-06T13:42:38;14.05;;;11.60;;
6757;SDS011;3416;53.074;8.822;2023-04-06T13:45:13;12.25;;;10.75;;
6757;SDS011;3416;53.074;8.822;2023-04-06T13:47:58;15.32;;;11.52;;
6757;SDS011;3416;53.074;8.822;2023-04-06T13:50:34;12.65;;;10.63;;
6757;SDS011;3416;53.074;8.822;2023-04-06T13:53:06;13.07;;;11.25;;
6757;SDS011;3416;53.074;8.822;2023-04-06T13:55:36;16.80;;;12.55;;
6757;SDS011;3416;53.074;8.822;2023-04-06T13:58:28;12.13;;;10.65;;
6757;SDS011;3416;53.074;8.822;2023-04-06T14:01:07;16.75;;;12.60;;
6757;SDS011;3416;53.074;8.822;2023-04-06T14:03:39;13.95;;;11.98;;
6757;SDS011;3416;53.074;8.822;2023-04-06T14:06:14;14.18;;;12.68;;
6757;SDS011;3416;53.074;8.822;2023-04-06T14:08:45;13.73;;;11.57;;
6757;SDS011;3416;53.074;8.822;2023-04-06T14:11:18;13.23;;;11.40;;
6757;SDS011;3416;53.074;8.822;2023-04-06T14:14:04;16.20;;;11.98;;
6757;SDS011;3416;53.074;8.822;2023-04-06T14:16:37;15.95;;;11.60;;
6757;SDS011;3416;53.074;8.822;2023-04-06T14:19:09;19.48;;;12.55;;
6757;SDS011;3416;53.074;8.822;2023-04-06T14:21:38;15.05;;;12.10;;
6757;SDS011;3416;53.074;8.822;2023-04-06T14:24:12;14.40;;;11.10;;
6757;SDS011;3416;53.074;8.822;2023-04-06T14:26:45;14.73;;;11.63;;
6757;SDS011;3416;53.074;8.822;2023-04-06T14:29:20;14.07;;;11.13;;
6757;SDS011;3416;53.074;8.822;2023-04-06T14:31:57;19.13;;;10.73;;
6757;SDS011;3416;53.074;8.822;2023-04-06T14:34:33;12.60;;;10.40;;
6757;SDS011;3416;53.074;8.822;2023-04-06T14:37:09;13.23;;;10.93;;
6757;SDS011;3416;53.074;8.822;2023-04-06T14:39:38;16.02;;;11.02;;
6757;SDS011;3416;53.074;8.822;2023-04-06T14:42:13;15.88;;;11.40;;
6757;SDS011;3416;53.074;8.822;2023-04-06T14:44:45;15.55;;;10.57;;
6757;SDS011;3416;53.074;8.822;2023-04-06T14:47:17;15.43;;;10.75;;
6757;SDS011;3416;53.074;8.822;2023-04-06T14:49:51;16.40;;;11.00;;
6757;SDS011;3416;53.074;8.822;2023-04-06T14:52:29;16.20;;;11.52;;
6757;SDS011;3416;53.074;8.822;2023-04-06T14:55:10;14.60;;;12.20;;
6757;SDS011;3416;53.074;8.822;2023-04-06T14:57:39;14.05;;;11.23;;
6757;SDS011;3416;53.074;8.822;2023-04-06T15:00:21;15.05;;;11.00;;
6757;SDS011;3416;53.074;8.822;2023-04-06T15:02:49;13.32;;;11.00;;
6757;SDS011;3416;53.074;8.822;2023-04-06T15:05:21;15.27;;;11.10;;
6757;SDS011;3416;53.074;8.822;2023-04-06T15:08:05;12.48;;;11.20;;
6757;SDS011;3416;53.074;8.822;2023-04-06T15:11:09;16.80;;;11.15;;
6757;SDS011;3416;53.074;8.822;2023-04-06T15:13:46;13.90;;;10.85;;
6757;SDS011;3416;53.074;8.822;2023-04-06T15:16:21;15.70;;;11.23;;
6757;SDS011;3416;53.074;8.822;2023-04-06T15:19:01;17.00;;;10.80;;
6757;SDS011;3416;53.074;8.822;2023-04-06T15:21:29;15.55;;;11.68;;
6757;SDS011;3416;53.074;8.822;2023-04-06T15:24:26;14.13;;;12.70;;
6757;SDS011;3416;53.074;8.822;2023-04-06T15:27:21;15.13;;;11.80;;
6757;SDS011;3416;53.074;8.822;2023-04-06T15:30:06;14.65;;;12.23;;
6757;SDS011;3416;53.074;8.822;2023-04-06T15:32:52;19.55;;;12.45;;